sensor_id;sensor_type;location;lat;lon;timestamp;temperature;humidity
19847;DHT22;10084;50.518;8.588;2023-12-22T00:01:26;7.00;89.50
19847;DHT22;10084;50.518;8.588;2023-12-22T00:03:52;7.00;89.40
19847;DHT22;10084;50.518;8.588;2023-12-22T00:06:18;7.00;89.40
19847;DHT22;10084;50.518;8.588;2023-12-22T00:08:43;7.00;89.20
19847;DHT22;10084;50.518;8.588;2023-12-22T00:11:09;7.00;89.20
19847;DHT22;10084;50.518;8.588;2023-12-22T00:13:35;7.00;89.00
19847;DHT22;10084;50.518;8.588;2023-12-22T00:16:00;7.00;88.90
19847;DHT22;10084;50.518;8.588;2023-12-22T00:18:26;7.00;88.70
19847;DHT22;10084;50.518;8.588;2023-12-22T00:20:52;7.00;88.50
19847;DHT22;10084;50.518;8.588;2023-12-22T00:23:18;7.00;88.40
19847;DHT22;10084;50.518;8.588;2023-12-22T00:25:44;7.00;88.30
19847;DHT22;10084;50.518;8.588;2023-12-22T00:28:10;7.00;88.30
19847;DHT22;10084;50.518;8.588;2023-12-22T00:30:35;7.00;88.00
19847;DHT22;10084;50.518;8.588;2023-12-22T00:33:01;7.00;87.70
19847;DHT22;10084;50.518;8.588;2023-12-22T00:35:27;7.00;87.50
19847;DHT22;10084;50.518;8.588;2023-12-22T00:37:53;6.90;87.30
19847;DHT22;10084;50.518;8.588;2023-12-22T00:40:19;6.80;87.10
19847;DHT22;10084;50.518;8.588;2023-12-22T00:42:45;6.80;87.20
19847;DHT22;10084;50.518;8.588;2023-12-22T00:45:10;6.70;87.10
19847;DHT22;10084;50.518;8.588;2023-12-22T00:47:36;6.70;87.20
19847;DHT22;10084;50.518;8.588;2023-12-22T00:50:03;6.60;87.10
19847;DHT22;10084;50.518;8.588;2023-12-22T00:52:30;6.60;87.20
19847;DHT22;10084;50.518;8.588;2023-12-22T00:54:56;6.50;87.20
19847;DHT22;10084;50.518;8.588;2023-12-22T00:57:22;6.40;87.30
19847;DHT22;10084;50.518;8.588;2023-12-22T00:59:48;6.40;87.20
19847;DHT22;10084;50.518;8.588;2023-12-22T01:02:15;6.40;87.40
19847;DHT22;10084;50.518;8.588;2023-12-22T01:04:40;6.30;87.30
19847;DHT22;10084;50.518;8.588;2023-12-22T01:07:10;6.30;87.40
19847;DHT22;10084;50.518;8.588;2023-12-22T01:09:36;6.20;87.50
19847;DHT22;10084;50.518;8.588;2023-12-22T01:12:04;6.20;87.60
19847;DHT22;10084;50.518;8.588;2023-12-22T01:14:30;6.20;87.70
19847;DHT22;10084;50.518;8.588;2023-12-22T01:16:56;6.20;87.80
19847;DHT22;10084;50.518;8.588;2023-12-22T01:19:22;6.20;87.80
19847;DHT22;10084;50.518;8.588;2023-12-22T01:21:48;6.10;87.80
19847;DHT22;10084;50.518;8.588;2023-12-22T01:24:15;6.10;87.90
19847;DHT22;10084;50.518;8.588;2023-12-22T01:26:40;6.10;87.90
19847;DHT22;10084;50.518;8.588;2023-12-22T01:29:06;6.10;87.90
19847;DHT22;10084;50.518;8.588;2023-12-22T01:31:32;6.10;87.90
19847;DHT22;10084;50.518;8.588;2023-12-22T01:33:57;6.00;87.90
19847;DHT22;10084;50.518;8.588;2023-12-22T01:36:23;6.10;88.00
19847;DHT22;10084;50.518;8.588;2023-12-22T01:38:49;6.00;88.00
19847;DHT22;10084;50.518;8.588;2023-12-22T01:41:15;6.00;87.90
19847;DHT22;10084;50.518;8.588;2023-12-22T01:43:41;6.00;88.00
19847;DHT22;10084;50.518;8.588;2023-12-22T01:46:07;6.00;88.00
19847;DHT22;10084;50.518;8.588;2023-12-22T01:48:36;6.00;88.10
19847;DHT22;10084;50.518;8.588;2023-12-22T01:51:02;6.00;88.00
19847;DHT22;10084;50.518;8.588;2023-12-22T01:53:30;5.90;88.10
19847;DHT22;10084;50.518;8.588;2023-12-22T01:55:56;5.90;88.10
19847;DHT22;10084;50.518;8.588;2023-12-22T01:58:23;6.00;88.20
19847;DHT22;10084;50.518;8.588;2023-12-22T02:00:50;5.90;88.10
19847;DHT22;10084;50.518;8.588;2023-12-22T02:03:17;5.90;88.10
19847;DHT22;10084;50.518;8.588;2023-12-22T02:05:46;5.90;88.10
19847;DHT22;10084;50.518;8.588;2023-12-22T02:08:12;5.90;88.20
19847;DHT22;10084;50.518;8.588;2023-12-22T02:10:38;5.90;88.30
19847;DHT22;10084;50.518;8.588;2023-12-22T02:13:04;5.90;88.30
19847;DHT22;10084;50.518;8.588;2023-12-22T02:15:31;5.90;88.40
19847;DHT22;10084;50.518;8.588;2023-12-22T02:18:21;6.00;88.50
19847;DHT22;10084;50.518;8.588;2023-12-22T02:20:47;6.00;88.50
19847;DHT22;10084;50.518;8.588;2023-12-22T02:23:13;6.00;88.50
19847;DHT22;10084;50.518;8.588;2023-12-22T02:25:39;6.00;88.50
19847;DHT22;10084;50.518;8.588;2023-12-22T02:28:10;6.00;89.10
19847;DHT22;10084;50.518;8.588;2023-12-22T02:30:54;6.00;88.40
19847;DHT22;10084;50.518;8.588;2023-12-22T02:33:23;6.00;88.40
19847;DHT22;10084;50.518;8.588;2023-12-22T02:35:50;5.90;88.30
19847;DHT22;10084;50.518;8.588;2023-12-22T02:38:17;5.90;88.40
19847;DHT22;10084;50.518;8.588;2023-12-22T02:40:44;5.90;88.50
19847;DHT22;10084;50.518;8.588;2023-12-22T02:43:11;5.80;88.40
19847;DHT22;10084;50.518;8.588;2023-12-22T02:45:36;5.80;88.30
19847;DHT22;10084;50.518;8.588;2023-12-22T02:48:02;5.80;88.30
19847;DHT22;10084;50.518;8.588;2023-12-22T02:50:28;5.70;88.40
19847;DHT22;10084;50.518;8.588;2023-12-22T02:52:54;5.70;88.70
19847;DHT22;10084;50.518;8.588;2023-12-22T02:55:20;5.70;88.90
19847;DHT22;10084;50.518;8.588;2023-12-22T02:57:45;5.70;89.00
19847;DHT22;10084;50.518;8.588;2023-12-22T03:00:11;5.70;89.10
19847;DHT22;10084;50.518;8.588;2023-12-22T03:02:37;5.70;89.10
19847;DHT22;10084;50.518;8.588;2023-12-22T03:05:04;5.70;89.00
19847;DHT22;10084;50.518;8.588;2023-12-22T03:07:30;5.70;89.10
19847;DHT22;10084;50.518;8.588;2023-12-22T03:09:55;5.70;89.30
19847;DHT22;10084;50.518;8.588;2023-12-22T03:12:21;5.70;89.20
19847;DHT22;10084;50.518;8.588;2023-12-22T03:14:47;5.70;89.30
19847;DHT22;10084;50.518;8.588;2023-12-22T03:17:12;5.70;89.40
19847;DHT22;10084;50.518;8.588;2023-12-22T03:19:39;5.70;89.50
19847;DHT22;10084;50.518;8.588;2023-12-22T03:22:05;5.70;89.70
19847;DHT22;10084;50.518;8.588;2023-12-22T03:24:30;5.70;89.80
19847;DHT22;10084;50.518;8.588;2023-12-22T03:26:56;5.70;89.90
19847;DHT22;10084;50.518;8.588;2023-12-22T03:29:22;5.70;90.00
19847;DHT22;10084;50.518;8.588;2023-12-22T03:31:47;5.80;90.10
19847;DHT22;10084;50.518;8.588;2023-12-22T03:34:13;5.80;90.20
19847;DHT22;10084;50.518;8.588;2023-12-22T03:36:39;5.80;90.20
19847;DHT22;10084;50.518;8.588;2023-12-22T03:39:05;5.90;90.00
19847;DHT22;10084;50.518;8.588;2023-12-22T03:41:31;5.80;89.20
19847;DHT22;10084;50.518;8.588;2023-12-22T03:43:57;5.70;89.50
19847;DHT22;10084;50.518;8.588;2023-12-22T03:46:23;5.60;88.80
19847;DHT22;10084;50.518;8.588;2023-12-22T03:48:50;5.60;88.90
19847;DHT22;10084;50.518;8.588;2023-12-22T03:51:16;5.50;89.10
19847;DHT22;10084;50.518;8.588;2023-12-22T03:53:41;5.40;89.30
19847;DHT22;10084;50.518;8.588;2023-12-22T03:56:10;5.40;89.60
19847;DHT22;10084;50.518;8.588;2023-12-22T03:58:36;5.30;89.50
19847;DHT22;10084;50.518;8.588;2023-12-22T04:01:02;5.30;89.60
19847;DHT22;10084;50.518;8.588;2023-12-22T04:03:28;5.20;89.50
19847;DHT22;10084;50.518;8.588;2023-12-22T04:05:54;5.20;89.60
19847;DHT22;10084;50.518;8.588;2023-12-22T04:08:20;5.20;89.80
19847;DHT22;10084;50.518;8.588;2023-12-22T04:10:47;5.20;90.00
19847;DHT22;10084;50.518;8.588;2023-12-22T04:13:13;5.10;90.00
19847;DHT22;10084;50.518;8.588;2023-12-22T04:15:39;5.10;90.10
19847;DHT22;10084;50.518;8.588;2023-12-22T04:18:05;5.10;90.10
19847;DHT22;10084;50.518;8.588;2023-12-22T04:20:30;5.10;90.10
19847;DHT22;10084;50.518;8.588;2023-12-22T04:22:57;5.10;90.20
19847;DHT22;10084;50.518;8.588;2023-12-22T04:25:23;5.10;90.20
19847;DHT22;10084;50.518;8.588;2023-12-22T04:27:50;5.10;90.20
19847;DHT22;10084;50.518;8.588;2023-12-22T04:30:16;5.10;90.10
19847;DHT22;10084;50.518;8.588;2023-12-22T04:32:42;5.00;90.00
19847;DHT22;10084;50.518;8.588;2023-12-22T04:35:08;5.00;90.10
19847;DHT22;10084;50.518;8.588;2023-12-22T04:37:33;5.00;90.30
19847;DHT22;10084;50.518;8.588;2023-12-22T04:39:59;5.00;90.50
19847;DHT22;10084;50.518;8.588;2023-12-22T04:42:25;5.00;90.60
19847;DHT22;10084;50.518;8.588;2023-12-22T04:44:51;5.10;90.70
19847;DHT22;10084;50.518;8.588;2023-12-22T04:47:17;5.20;90.80
19847;DHT22;10084;50.518;8.588;2023-12-22T04:49:43;5.20;90.80
19847;DHT22;10084;50.518;8.588;2023-12-22T04:52:10;5.30;90.90
19847;DHT22;10084;50.518;8.588;2023-12-22T04:54:36;5.40;90.90
19847;DHT22;10084;50.518;8.588;2023-12-22T04:57:02;5.50;90.90
19847;DHT22;10084;50.518;8.588;2023-12-22T04:59:28;5.50;90.90
19847;DHT22;10084;50.518;8.588;2023-12-22T05:01:54;5.60;90.90
19847;DHT22;10084;50.518;8.588;2023-12-22T05:04:19;5.70;90.90
19847;DHT22;10084;50.518;8.588;2023-12-22T05:06:46;5.80;90.90
19847;DHT22;10084;50.518;8.588;2023-12-22T05:09:12;5.80;90.80
19847;DHT22;10084;50.518;8.588;2023-12-22T05:11:38;5.80;90.60
19847;DHT22;10084;50.518;8.588;2023-12-22T05:14:04;5.80;90.40
19847;DHT22;10084;50.518;8.588;2023-12-22T05:16:29;5.80;90.30
19847;DHT22;10084;50.518;8.588;2023-12-22T05:19:00;5.70;90.20
19847;DHT22;10084;50.518;8.588;2023-12-22T05:21:25;5.70;90.20
19847;DHT22;10084;50.518;8.588;2023-12-22T05:23:53;5.60;90.10
19847;DHT22;10084;50.518;8.588;2023-12-22T05:26:22;5.50;90.10
19847;DHT22;10084;50.518;8.588;2023-12-22T05:28:48;5.50;90.10
19847;DHT22;10084;50.518;8.588;2023-12-22T05:31:17;5.50;90.20
19847;DHT22;10084;50.518;8.588;2023-12-22T05:33:43;5.40;90.30
19847;DHT22;10084;50.518;8.588;2023-12-22T05:36:09;5.50;90.50
19847;DHT22;10084;50.518;8.588;2023-12-22T05:38:38;5.50;90.50
19847;DHT22;10084;50.518;8.588;2023-12-22T05:41:05;5.50;90.50
19847;DHT22;10084;50.518;8.588;2023-12-22T05:43:32;5.60;90.50
19847;DHT22;10084;50.518;8.588;2023-12-22T05:45:59;5.60;90.50
19847;DHT22;10084;50.518;8.588;2023-12-22T05:48:26;5.60;90.60
19847;DHT22;10084;50.518;8.588;2023-12-22T05:50:56;5.70;90.80
19847;DHT22;10084;50.518;8.588;2023-12-22T05:53:23;5.70;90.80
19847;DHT22;10084;50.518;8.588;2023-12-22T05:55:48;5.80;90.70
19847;DHT22;10084;50.518;8.588;2023-12-22T05:58:14;5.80;90.50
19847;DHT22;10084;50.518;8.588;2023-12-22T06:00:40;5.80;90.40
19847;DHT22;10084;50.518;8.588;2023-12-22T06:03:05;5.80;90.30
19847;DHT22;10084;50.518;8.588;2023-12-22T06:05:31;5.80;90.30
19847;DHT22;10084;50.518;8.588;2023-12-22T06:07:57;5.80;90.30
19847;DHT22;10084;50.518;8.588;2023-12-22T06:10:22;5.80;90.30
19847;DHT22;10084;50.518;8.588;2023-12-22T06:12:48;5.80;90.30
19847;DHT22;10084;50.518;8.588;2023-12-22T06:15:14;5.80;90.40
19847;DHT22;10084;50.518;8.588;2023-12-22T06:17:40;5.80;90.40
19847;DHT22;10084;50.518;8.588;2023-12-22T06:20:06;5.80;90.40
19847;DHT22;10084;50.518;8.588;2023-12-22T06:22:32;5.80;90.50
19847;DHT22;10084;50.518;8.588;2023-12-22T06:24:58;5.80;90.50
19847;DHT22;10084;50.518;8.588;2023-12-22T06:27:23;5.80;90.50
19847;DHT22;10084;50.518;8.588;2023-12-22T06:29:49;5.90;90.60
19847;DHT22;10084;50.518;8.588;2023-12-22T06:32:15;5.90;90.60
19847;DHT22;10084;50.518;8.588;2023-12-22T06:34:42;6.00;90.70
19847;DHT22;10084;50.518;8.588;2023-12-22T06:37:08;6.00;90.70
19847;DHT22;10084;50.518;8.588;2023-12-22T06:39:34;6.10;90.80
19847;DHT22;10084;50.518;8.588;2023-12-22T06:41:59;6.10;90.70
19847;DHT22;10084;50.518;8.588;2023-12-22T06:44:25;6.20;90.70
19847;DHT22;10084;50.518;8.588;2023-12-22T06:46:51;6.20;90.70
19847;DHT22;10084;50.518;8.588;2023-12-22T06:49:18;6.30;90.70
19847;DHT22;10084;50.518;8.588;2023-12-22T06:51:43;6.30;90.80
19847;DHT22;10084;50.518;8.588;2023-12-22T06:54:09;6.30;90.80
19847;DHT22;10084;50.518;8.588;2023-12-22T06:56:35;6.40;90.80
19847;DHT22;10084;50.518;8.588;2023-12-22T06:59:01;6.40;90.80
19847;DHT22;10084;50.518;8.588;2023-12-22T07:01:35;6.40;90.80
19847;DHT22;10084;50.518;8.588;2023-12-22T07:04:02;6.50;90.90
19847;DHT22;10084;50.518;8.588;2023-12-22T07:06:34;6.50;91.00
19847;DHT22;10084;50.518;8.588;2023-12-22T07:14:08;6.60;90.90
19847;DHT22;10084;50.518;8.588;2023-12-22T07:16:35;6.60;90.90
19847;DHT22;10084;50.518;8.588;2023-12-22T07:19:01;6.60;90.90
19847;DHT22;10084;50.518;8.588;2023-12-22T07:21:27;6.60;90.90
19847;DHT22;10084;50.518;8.588;2023-12-22T07:23:53;6.60;90.90
19847;DHT22;10084;50.518;8.588;2023-12-22T07:26:18;6.60;90.90
19847;DHT22;10084;50.518;8.588;2023-12-22T07:28:46;6.60;90.90
19847;DHT22;10084;50.518;8.588;2023-12-22T07:31:12;6.60;90.90
19847;DHT22;10084;50.518;8.588;2023-12-22T07:33:39;6.60;90.90
19847;DHT22;10084;50.518;8.588;2023-12-22T07:36:05;6.60;91.00
19847;DHT22;10084;50.518;8.588;2023-12-22T07:38:31;6.60;91.10
19847;DHT22;10084;50.518;8.588;2023-12-22T07:40:56;6.60;91.10
19847;DHT22;10084;50.518;8.588;2023-12-22T07:43:22;6.60;91.10
19847;DHT22;10084;50.518;8.588;2023-12-22T07:45:48;6.60;91.10
19847;DHT22;10084;50.518;8.588;2023-12-22T07:48:16;6.60;91.00
19847;DHT22;10084;50.518;8.588;2023-12-22T07:50:41;6.60;91.00
19847;DHT22;10084;50.518;8.588;2023-12-22T07:53:07;6.60;91.00
19847;DHT22;10084;50.518;8.588;2023-12-22T07:55:34;6.60;90.90
19847;DHT22;10084;50.518;8.588;2023-12-22T07:58:00;6.60;90.90
19847;DHT22;10084;50.518;8.588;2023-12-22T08:00:26;6.60;90.90
19847;DHT22;10084;50.518;8.588;2023-12-22T08:02:51;6.60;91.00
19847;DHT22;10084;50.518;8.588;2023-12-22T08:05:18;6.60;91.00
19847;DHT22;10084;50.518;8.588;2023-12-22T08:07:44;6.60;91.00
19847;DHT22;10084;50.518;8.588;2023-12-22T08:10:10;6.60;91.10
19847;DHT22;10084;50.518;8.588;2023-12-22T08:12:36;6.60;91.10
19847;DHT22;10084;50.518;8.588;2023-12-22T08:15:02;6.70;91.10
19847;DHT22;10084;50.518;8.588;2023-12-22T08:17:28;6.70;91.10
19847;DHT22;10084;50.518;8.588;2023-12-22T08:19:54;6.80;91.20
19847;DHT22;10084;50.518;8.588;2023-12-22T08:22:19;6.80;91.30
19847;DHT22;10084;50.518;8.588;2023-12-22T08:24:45;6.90;91.30
19847;DHT22;10084;50.518;8.588;2023-12-22T08:27:11;7.00;91.30
19847;DHT22;10084;50.518;8.588;2023-12-22T08:29:37;7.00;91.30
19847;DHT22;10084;50.518;8.588;2023-12-22T08:32:03;7.10;91.40
19847;DHT22;10084;50.518;8.588;2023-12-22T08:34:29;7.10;91.40
19847;DHT22;10084;50.518;8.588;2023-12-22T08:36:54;7.20;91.40
19847;DHT22;10084;50.518;8.588;2023-12-22T08:39:20;7.30;91.40
19847;DHT22;10084;50.518;8.588;2023-12-22T08:41:46;7.30;91.40
19847;DHT22;10084;50.518;8.588;2023-12-22T08:44:13;7.40;91.40
19847;DHT22;10084;50.518;8.588;2023-12-22T08:46:40;7.40;91.30
19847;DHT22;10084;50.518;8.588;2023-12-22T08:49:06;7.40;91.10
19847;DHT22;10084;50.518;8.588;2023-12-22T08:51:32;7.50;91.10
19847;DHT22;10084;50.518;8.588;2023-12-22T08:53:58;7.50;91.10
19847;DHT22;10084;50.518;8.588;2023-12-22T08:56:24;7.50;91.00
19847;DHT22;10084;50.518;8.588;2023-12-22T08:58:54;7.50;91.00
19847;DHT22;10084;50.518;8.588;2023-12-22T09:01:21;7.50;90.90
19847;DHT22;10084;50.518;8.588;2023-12-22T09:03:48;7.60;90.90
19847;DHT22;10084;50.518;8.588;2023-12-22T09:06:18;7.60;90.90
19847;DHT22;10084;50.518;8.588;2023-12-22T09:08:44;7.60;90.90
19847;DHT22;10084;50.518;8.588;2023-12-22T09:11:12;7.60;90.90
19847;DHT22;10084;50.518;8.588;2023-12-22T09:13:38;7.60;90.80
19847;DHT22;10084;50.518;8.588;2023-12-22T09:16:05;7.60;90.80
19847;DHT22;10084;50.518;8.588;2023-12-22T09:18:31;7.60;90.80
19847;DHT22;10084;50.518;8.588;2023-12-22T09:20:57;7.70;90.90
19847;DHT22;10084;50.518;8.588;2023-12-22T09:23:24;7.70;90.90
19847;DHT22;10084;50.518;8.588;2023-12-22T09:25:49;7.70;91.00
19847;DHT22;10084;50.518;8.588;2023-12-22T09:28:15;7.80;91.00
19847;DHT22;10084;50.518;8.588;2023-12-22T09:30:41;7.80;90.90
19847;DHT22;10084;50.518;8.588;2023-12-22T09:33:09;7.90;90.90
19847;DHT22;10084;50.518;8.588;2023-12-22T09:35:34;7.90;90.80
19847;DHT22;10084;50.518;8.588;2023-12-22T09:38:00;7.90;90.80
19847;DHT22;10084;50.518;8.588;2023-12-22T09:40:26;7.90;90.80
19847;DHT22;10084;50.518;8.588;2023-12-22T09:42:54;7.90;90.70
19847;DHT22;10084;50.518;8.588;2023-12-22T09:45:21;7.90;90.70
19847;DHT22;10084;50.518;8.588;2023-12-22T09:47:48;7.90;90.70
19847;DHT22;10084;50.518;8.588;2023-12-22T09:50:15;7.90;90.70
19847;DHT22;10084;50.518;8.588;2023-12-22T09:52:44;7.90;90.80
19847;DHT22;10084;50.518;8.588;2023-12-22T09:55:12;7.90;90.80
19847;DHT22;10084;50.518;8.588;2023-12-22T09:57:38;7.90;90.80
19847;DHT22;10084;50.518;8.588;2023-12-22T10:00:08;7.90;91.10
19847;DHT22;10084;50.518;8.588;2023-12-22T10:02:36;8.00;90.90
19847;DHT22;10084;50.518;8.588;2023-12-22T10:05:02;8.00;91.00
19847;DHT22;10084;50.518;8.588;2023-12-22T10:07:28;8.00;91.00
19847;DHT22;10084;50.518;8.588;2023-12-22T10:09:56;8.00;91.00
19847;DHT22;10084;50.518;8.588;2023-12-22T10:12:23;8.10;91.10
19847;DHT22;10084;50.518;8.588;2023-12-22T10:14:49;8.10;91.10
19847;DHT22;10084;50.518;8.588;2023-12-22T10:17:17;8.20;91.10
19847;DHT22;10084;50.518;8.588;2023-12-22T10:19:43;8.20;91.10
19847;DHT22;10084;50.518;8.588;2023-12-22T10:22:09;8.20;91.10
19847;DHT22;10084;50.518;8.588;2023-12-22T10:24:38;8.20;91.10
19847;DHT22;10084;50.518;8.588;2023-12-22T10:27:05;8.30;91.20
19847;DHT22;10084;50.518;8.588;2023-12-22T10:29:31;8.30;91.10
19847;DHT22;10084;50.518;8.588;2023-12-22T10:32:00;8.30;91.10
19847;DHT22;10084;50.518;8.588;2023-12-22T10:34:26;8.30;91.10
19847;DHT22;10084;50.518;8.588;2023-12-22T10:36:52;8.40;91.10
19847;DHT22;10084;50.518;8.588;2023-12-22T10:39:17;8.40;91.10
19847;DHT22;10084;50.518;8.588;2023-12-22T10:41:44;8.40;91.10
19847;DHT22;10084;50.518;8.588;2023-12-22T10:44:10;8.40;91.10
19847;DHT22;10084;50.518;8.588;2023-12-22T10:46:36;8.40;91.10
19847;DHT22;10084;50.518;8.588;2023-12-22T10:49:02;8.50;91.10
19847;DHT22;10084;50.518;8.588;2023-12-22T10:51:29;8.50;91.10
19847;DHT22;10084;50.518;8.588;2023-12-22T10:53:58;8.50;91.10
19847;DHT22;10084;50.518;8.588;2023-12-22T10:56:25;8.50;91.20
19847;DHT22;10084;50.518;8.588;2023-12-22T10:58:51;8.50;91.20
19847;DHT22;10084;50.518;8.588;2023-12-22T11:01:18;8.60;91.20
19847;DHT22;10084;50.518;8.588;2023-12-22T11:03:50;8.60;91.20
19847;DHT22;10084;50.518;8.588;2023-12-22T11:11:24;8.80;91.50
19847;DHT22;10084;50.518;8.588;2023-12-22T11:13:56;9.00;92.30
19847;DHT22;10084;50.518;8.588;2023-12-22T11:16:24;9.20;92.40
19847;DHT22;10084;50.518;8.588;2023-12-22T11:18:50;9.30;92.30
19847;DHT22;10084;50.518;8.588;2023-12-22T11:21:21;9.50;92.20
19847;DHT22;10084;50.518;8.588;2023-12-22T11:23:47;9.60;92.10
19847;DHT22;10084;50.518;8.588;2023-12-22T11:26:16;9.70;92.00
19847;DHT22;10084;50.518;8.588;2023-12-22T11:28:42;9.80;91.90
19847;DHT22;10084;50.518;8.588;2023-12-22T11:31:10;9.90;91.90
19847;DHT22;10084;50.518;8.588;2023-12-22T11:33:36;9.90;91.70
19847;DHT22;10084;50.518;8.588;2023-12-22T11:36:04;10.00;91.70
19847;DHT22;10084;50.518;8.588;2023-12-22T11:38:30;10.00;91.60
19847;DHT22;10084;50.518;8.588;2023-12-22T11:40:58;10.10;91.60
19847;DHT22;10084;50.518;8.588;2023-12-22T11:43:25;10.10;91.50
19847;DHT22;10084;50.518;8.588;2023-12-22T11:45:51;10.10;91.50
19847;DHT22;10084;50.518;8.588;2023-12-22T11:48:16;10.10;91.50
19847;DHT22;10084;50.518;8.588;2023-12-22T11:50:43;10.10;91.40
19847;DHT22;10084;50.518;8.588;2023-12-22T11:53:23;10.20;91.70
19847;DHT22;10084;50.518;8.588;2023-12-22T11:58:44;10.20;91.30
19847;DHT22;10084;50.518;8.588;2023-12-22T12:01:19;10.20;91.30
19847;DHT22;10084;50.518;8.588;2023-12-22T12:03:51;10.20;91.20
19847;DHT22;10084;50.518;8.588;2023-12-22T12:08:52;10.20;91.30
19847;DHT22;10084;50.518;8.588;2023-12-22T12:11:22;10.20;91.20
19847;DHT22;10084;50.518;8.588;2023-12-22T12:13:49;10.20;91.10
19847;DHT22;10084;50.518;8.588;2023-12-22T12:16:21;10.20;91.10
19847;DHT22;10084;50.518;8.588;2023-12-22T12:18:47;10.20;91.10
19847;DHT22;10084;50.518;8.588;2023-12-22T12:21:13;10.20;91.10
19847;DHT22;10084;50.518;8.588;2023-12-22T12:23:41;10.20;91.20
19847;DHT22;10084;50.518;8.588;2023-12-22T12:26:08;10.20;91.20
19847;DHT22;10084;50.518;8.588;2023-12-22T12:28:35;10.20;91.20
19847;DHT22;10084;50.518;8.588;2023-12-22T12:31:08;10.20;91.20
19847;DHT22;10084;50.518;8.588;2023-12-22T12:33:35;10.20;91.20
19847;DHT22;10084;50.518;8.588;2023-12-22T12:36:02;10.20;91.20
19847;DHT22;10084;50.518;8.588;2023-12-22T12:39:28;10.20;90.80
19847;DHT22;10084;50.518;8.588;2023-12-22T12:41:42;10.10;90.50
19847;DHT22;10084;50.518;8.588;2023-12-22T12:44:10;9.90;90.30
19847;DHT22;10084;50.518;8.588;2023-12-22T12:46:37;9.80;90.30
19847;DHT22;10084;50.518;8.588;2023-12-22T12:49:10;9.70;90.40
19847;DHT22;10084;50.518;8.588;2023-12-22T12:51:47;9.70;95.30
19847;DHT22;10084;50.518;8.588;2023-12-22T12:54:15;9.70;94.40
19847;DHT22;10084;50.518;8.588;2023-12-22T12:56:44;9.70;98.40
19847;DHT22;10084;50.518;8.588;2023-12-22T12:59:15;9.60;96.30
19847;DHT22;10084;50.518;8.588;2023-12-22T13:01:43;9.60;95.50
19847;DHT22;10084;50.518;8.588;2023-12-22T13:04:10;9.60;94.40
19847;DHT22;10084;50.518;8.588;2023-12-22T13:09:10;9.60;93.40
19847;DHT22;10084;50.518;8.588;2023-12-22T13:11:36;9.60;93.10
19847;DHT22;10084;50.518;8.588;2023-12-22T13:14:02;9.60;92.30
19847;DHT22;10084;50.518;8.588;2023-12-22T13:16:28;9.60;91.40
19847;DHT22;10084;50.518;8.588;2023-12-22T13:18:57;9.60;91.30
19847;DHT22;10084;50.518;8.588;2023-12-22T13:21:26;9.60;91.30
19847;DHT22;10084;50.518;8.588;2023-12-22T13:24:12;9.60;91.30
19847;DHT22;10084;50.518;8.588;2023-12-22T13:26:40;9.60;91.30
19847;DHT22;10084;50.518;8.588;2023-12-22T13:29:06;9.70;91.40
19847;DHT22;10084;50.518;8.588;2023-12-22T13:31:32;9.70;91.50
19847;DHT22;10084;50.518;8.588;2023-12-22T13:33:59;9.70;91.50
19847;DHT22;10084;50.518;8.588;2023-12-22T13:36:25;9.80;91.50
19847;DHT22;10084;50.518;8.588;2023-12-22T13:38:52;9.90;91.50
19847;DHT22;10084;50.518;8.588;2023-12-22T13:41:17;9.90;91.40
19847;DHT22;10084;50.518;8.588;2023-12-22T13:43:43;10.00;91.40
19847;DHT22;10084;50.518;8.588;2023-12-22T13:46:12;10.00;91.40
19847;DHT22;10084;50.518;8.588;2023-12-22T13:48:38;10.00;91.30
19847;DHT22;10084;50.518;8.588;2023-12-22T13:51:05;10.00;91.10
19847;DHT22;10084;50.518;8.588;2023-12-22T13:53:31;10.00;91.10
19847;DHT22;10084;50.518;8.588;2023-12-22T13:55:57;10.00;91.20
19847;DHT22;10084;50.518;8.588;2023-12-22T13:58:24;10.00;91.20
19847;DHT22;10084;50.518;8.588;2023-12-22T14:00:53;10.00;91.20
19847;DHT22;10084;50.518;8.588;2023-12-22T14:03:19;10.00;91.20
19847;DHT22;10084;50.518;8.588;2023-12-22T14:05:48;10.00;91.10
19847;DHT22;10084;50.518;8.588;2023-12-22T14:08:15;10.00;91.10
19847;DHT22;10084;50.518;8.588;2023-12-22T14:10:45;10.00;91.10
19847;DHT22;10084;50.518;8.588;2023-12-22T14:13:12;10.00;91.00
19847;DHT22;10084;50.518;8.588;2023-12-22T14:15:38;10.00;91.00
19847;DHT22;10084;50.518;8.588;2023-12-22T14:18:04;10.10;91.00
19847;DHT22;10084;50.518;8.588;2023-12-22T14:20:29;10.00;90.90
19847;DHT22;10084;50.518;8.588;2023-12-22T14:22:55;10.00;90.80
19847;DHT22;10084;50.518;8.588;2023-12-22T14:25:21;10.00;90.70
19847;DHT22;10084;50.518;8.588;2023-12-22T14:27:47;10.00;90.70
19847;DHT22;10084;50.518;8.588;2023-12-22T14:30:13;9.90;90.60
19847;DHT22;10084;50.518;8.588;2023-12-22T14:32:38;9.90;90.60
19847;DHT22;10084;50.518;8.588;2023-12-22T14:35:05;9.90;90.60
19847;DHT22;10084;50.518;8.588;2023-12-22T14:37:30;9.90;90.60
19847;DHT22;10084;50.518;8.588;2023-12-22T14:39:56;9.80;90.70
19847;DHT22;10084;50.518;8.588;2023-12-22T14:42:22;9.80;90.70
19847;DHT22;10084;50.518;8.588;2023-12-22T14:44:48;9.80;90.80
19847;DHT22;10084;50.518;8.588;2023-12-22T14:47:13;9.80;90.80
19847;DHT22;10084;50.518;8.588;2023-12-22T14:49:39;9.80;90.80
19847;DHT22;10084;50.518;8.588;2023-12-22T14:52:05;9.70;90.80
19847;DHT22;10084;50.518;8.588;2023-12-22T14:54:31;9.80;90.90
19847;DHT22;10084;50.518;8.588;2023-12-22T14:56:57;9.80;90.90
19847;DHT22;10084;50.518;8.588;2023-12-22T14:59:23;9.80;90.90
19847;DHT22;10084;50.518;8.588;2023-12-22T15:01:49;9.80;90.80
19847;DHT22;10084;50.518;8.588;2023-12-22T15:04:14;9.70;90.80
19847;DHT22;10084;50.518;8.588;2023-12-22T15:06:41;9.70;90.80
19847;DHT22;10084;50.518;8.588;2023-12-22T15:09:09;9.70;90.80
19847;DHT22;10084;50.518;8.588;2023-12-22T15:11:41;9.60;90.90
19847;DHT22;10084;50.518;8.588;2023-12-22T15:14:07;9.60;90.90
19847;DHT22;10084;50.518;8.588;2023-12-22T15:16:33;9.50;91.00
19847;DHT22;10084;50.518;8.588;2023-12-22T15:18:58;9.50;91.10
19847;DHT22;10084;50.518;8.588;2023-12-22T15:21:24;9.50;91.20
19847;DHT22;10084;50.518;8.588;2023-12-22T15:23:50;9.50;91.30
19847;DHT22;10084;50.518;8.588;2023-12-22T15:26:25;9.50;91.40
19847;DHT22;10084;50.518;8.588;2023-12-22T15:28:52;9.50;91.50
19847;DHT22;10084;50.518;8.588;2023-12-22T15:31:17;9.50;91.50
19847;DHT22;10084;50.518;8.588;2023-12-22T15:33:43;9.50;91.60
19847;DHT22;10084;50.518;8.588;2023-12-22T15:36:09;9.60;91.60
19847;DHT22;10084;50.518;8.588;2023-12-22T15:38:34;9.60;91.60
19847;DHT22;10084;50.518;8.588;2023-12-22T15:41:01;9.60;91.60
19847;DHT22;10084;50.518;8.588;2023-12-22T15:43:27;9.60;91.60
19847;DHT22;10084;50.518;8.588;2023-12-22T15:45:53;9.60;91.60
19847;DHT22;10084;50.518;8.588;2023-12-22T15:48:19;9.60;91.50
19847;DHT22;10084;50.518;8.588;2023-12-22T15:50:46;9.60;91.50
19847;DHT22;10084;50.518;8.588;2023-12-22T15:53:13;9.60;91.40
19847;DHT22;10084;50.518;8.588;2023-12-22T15:55:38;9.60;91.30
19847;DHT22;10084;50.518;8.588;2023-12-22T15:58:04;9.50;91.30
19847;DHT22;10084;50.518;8.588;2023-12-22T16:00:29;9.60;91.40